sensor_id;sensor_type;location;lat;lon;timestamp;temperature;humidity
4910;DHT22;2470;49.868;8.660;2023-08-17T00:00:05;20.70;99.90
4910;DHT22;2470;49.868;8.660;2023-08-17T00:02:34;20.70;99.90
4910;DHT22;2470;49.868;8.660;2023-08-17T00:04:59;20.60;99.90
4910;DHT22;2470;49.868;8.660;2023-08-17T00:07:25;20.60;99.90
4910;DHT22;2470;49.868;8.660;2023-08-17T00:09:50;20.60;99.90
4910;DHT22;2470;49.868;8.660;2023-08-17T00:12:16;20.60;99.90
4910;DHT22;2470;49.868;8.660;2023-08-17T00:14:41;20.60;99.90
4910;DHT22;2470;49.868;8.660;2023-08-17T00:17:07;20.60;99.90
4910;DHT22;2470;49.868;8.660;2023-08-17T00:19:32;20.60;99.90
4910;DHT22;2470;49.868;8.660;2023-08-17T00:21:58;20.50;99.90
4910;DHT22;2470;49.868;8.660;2023-08-17T00:24:24;20.50;99.90
4910;DHT22;2470;49.868;8.660;2023-08-17T00:26:49;20.50;99.90
4910;DHT22;2470;49.868;8.660;2023-08-17T00:29:15;20.50;99.90
4910;DHT22;2470;49.868;8.660;2023-08-17T00:31:41;20.50;99.90
4910;DHT22;2470;49.868;8.660;2023-08-17T00:34:07;20.60;99.90
4910;DHT22;2470;49.868;8.660;2023-08-17T00:36:32;20.60;99.90
4910;DHT22;2470;49.868;8.660;2023-08-17T00:38:58;20.60;99.90
4910;DHT22;2470;49.868;8.660;2023-08-17T00:41:23;20.60;99.90
4910;DHT22;2470;49.868;8.660;2023-08-17T00:43:49;20.50;99.90
4910;DHT22;2470;49.868;8.660;2023-08-17T00:46:14;20.50;99.90
4910;DHT22;2470;49.868;8.660;2023-08-17T00:48:41;20.50;99.90
4910;DHT22;2470;49.868;8.660;2023-08-17T00:51:06;20.50;99.90
4910;DHT22;2470;49.868;8.660;2023-08-17T00:53:32;20.50;99.90
4910;DHT22;2470;49.868;8.660;2023-08-17T00:55:59;20.50;99.90
4910;DHT22;2470;49.868;8.660;2023-08-17T00:58:26;20.50;99.90
4910;DHT22;2470;49.868;8.660;2023-08-17T01:00:52;20.50;99.90
4910;DHT22;2470;49.868;8.660;2023-08-17T01:03:18;20.50;99.90
4910;DHT22;2470;49.868;8.660;2023-08-17T01:05:46;20.40;99.90
4910;DHT22;2470;49.868;8.660;2023-08-17T01:08:11;20.40;99.90
4910;DHT22;2470;49.868;8.660;2023-08-17T01:10:52;20.40;99.90
4910;DHT22;2470;49.868;8.660;2023-08-17T01:13:32;20.40;99.90
4910;DHT22;2470;49.868;8.660;2023-08-17T01:16:02;20.40;99.90
4910;DHT22;2470;49.868;8.660;2023-08-17T01:18:35;20.30;99.90
4910;DHT22;2470;49.868;8.660;2023-08-17T01:21:05;20.30;99.90
4910;DHT22;2470;49.868;8.660;2023-08-17T01:23:31;20.30;99.90
4910;DHT22;2470;49.868;8.660;2023-08-17T01:25:57;20.20;99.90
4910;DHT22;2470;49.868;8.660;2023-08-17T01:28:23;20.30;99.90
4910;DHT22;2470;49.868;8.660;2023-08-17T01:30:58;20.30;99.90
4910;DHT22;2470;49.868;8.660;2023-08-17T01:33:39;20.40;99.90
4910;DHT22;2470;49.868;8.660;2023-08-17T01:36:18;20.40;99.90
4910;DHT22;2470;49.868;8.660;2023-08-17T01:38:45;20.20;99.90
4910;DHT22;2470;49.868;8.660;2023-08-17T01:41:12;20.20;99.90
4910;DHT22;2470;49.868;8.660;2023-08-17T01:43:44;20.20;99.90
4910;DHT22;2470;49.868;8.660;2023-08-17T01:46:15;20.10;99.90
4910;DHT22;2470;49.868;8.660;2023-08-17T01:48:41;20.20;99.90
4910;DHT22;2470;49.868;8.660;2023-08-17T01:51:07;20.20;99.90
4910;DHT22;2470;49.868;8.660;2023-08-17T01:53:33;20.20;99.90
4910;DHT22;2470;49.868;8.660;2023-08-17T01:55:59;20.20;99.90
4910;DHT22;2470;49.868;8.660;2023-08-17T01:58:24;20.20;99.90
4910;DHT22;2470;49.868;8.660;2023-08-17T02:00:50;20.10;99.90
4910;DHT22;2470;49.868;8.660;2023-08-17T02:03:15;20.10;99.90
4910;DHT22;2470;49.868;8.660;2023-08-17T02:05:45;20.10;99.90
4910;DHT22;2470;49.868;8.660;2023-08-17T02:08:10;20.10;99.90
4910;DHT22;2470;49.868;8.660;2023-08-17T02:10:36;20.10;99.90
4910;DHT22;2470;49.868;8.660;2023-08-17T02:13:02;20.10;99.90
4910;DHT22;2470;49.868;8.660;2023-08-17T02:15:28;20.10;99.90
4910;DHT22;2470;49.868;8.660;2023-08-17T02:17:53;20.10;99.90
4910;DHT22;2470;49.868;8.660;2023-08-17T02:20:19;20.10;99.90
4910;DHT22;2470;49.868;8.660;2023-08-17T02:22:44;20.20;99.90
4910;DHT22;2470;49.868;8.660;2023-08-17T02:25:10;20.20;99.90
4910;DHT22;2470;49.868;8.660;2023-08-17T02:27:35;20.20;99.90
4910;DHT22;2470;49.868;8.660;2023-08-17T02:30:02;20.20;99.90
4910;DHT22;2470;49.868;8.660;2023-08-17T02:32:27;20.20;99.90
4910;DHT22;2470;49.868;8.660;2023-08-17T02:34:54;20.20;99.90
4910;DHT22;2470;49.868;8.660;2023-08-17T02:37:19;20.20;99.90
4910;DHT22;2470;49.868;8.660;2023-08-17T02:39:45;20.20;99.90
4910;DHT22;2470;49.868;8.660;2023-08-17T02:42:11;20.20;99.90
4910;DHT22;2470;49.868;8.660;2023-08-17T02:44:36;20.20;99.90
4910;DHT22;2470;49.868;8.660;2023-08-17T02:47:02;20.20;99.90
4910;DHT22;2470;49.868;8.660;2023-08-17T02:49:27;20.20;99.90
4910;DHT22;2470;49.868;8.660;2023-08-17T02:51:52;20.20;99.90
4910;DHT22;2470;49.868;8.660;2023-08-17T02:54:18;20.20;99.90
4910;DHT22;2470;49.868;8.660;2023-08-17T02:56:43;20.20;99.90
4910;DHT22;2470;49.868;8.660;2023-08-17T02:59:09;20.20;99.90
4910;DHT22;2470;49.868;8.660;2023-08-17T03:01:35;20.20;99.90
4910;DHT22;2470;49.868;8.660;2023-08-17T03:04:00;20.20;99.90
4910;DHT22;2470;49.868;8.660;2023-08-17T03:06:26;20.30;99.90
4910;DHT22;2470;49.868;8.660;2023-08-17T03:08:51;20.30;99.90
4910;DHT22;2470;49.868;8.660;2023-08-17T03:11:18;20.30;99.90
4910;DHT22;2470;49.868;8.660;2023-08-17T03:13:43;20.30;99.90
4910;DHT22;2470;49.868;8.660;2023-08-17T03:16:11;20.30;99.90
4910;DHT22;2470;49.868;8.660;2023-08-17T03:18:36;20.30;99.90
4910;DHT22;2470;49.868;8.660;2023-08-17T03:21:02;20.30;99.90
4910;DHT22;2470;49.868;8.660;2023-08-17T03:23:27;20.30;99.90
4910;DHT22;2470;49.868;8.660;2023-08-17T03:25:53;20.30;99.90
4910;DHT22;2470;49.868;8.660;2023-08-17T03:28:19;20.30;99.90
4910;DHT22;2470;49.868;8.660;2023-08-17T03:30:45;20.30;99.90
4910;DHT22;2470;49.868;8.660;2023-08-17T03:33:10;20.30;99.90
4910;DHT22;2470;49.868;8.660;2023-08-17T03:35:36;20.30;99.90
4910;DHT22;2470;49.868;8.660;2023-08-17T03:38:01;20.30;99.90
4910;DHT22;2470;49.868;8.660;2023-08-17T03:40:27;20.30;99.90
4910;DHT22;2470;49.868;8.660;2023-08-17T03:42:52;20.30;99.90
4910;DHT22;2470;49.868;8.660;2023-08-17T03:45:18;20.30;99.90
4910;DHT22;2470;49.868;8.660;2023-08-17T03:47:44;20.30;99.90
4910;DHT22;2470;49.868;8.660;2023-08-17T03:50:09;20.30;99.90
4910;DHT22;2470;49.868;8.660;2023-08-17T03:52:35;20.30;99.90
4910;DHT22;2470;49.868;8.660;2023-08-17T03:55:01;20.30;99.90
4910;DHT22;2470;49.868;8.660;2023-08-17T03:57:27;20.30;99.90
4910;DHT22;2470;49.868;8.660;2023-08-17T03:59:52;20.30;99.90
4910;DHT22;2470;49.868;8.660;2023-08-17T04:02:18;20.40;99.90
4910;DHT22;2470;49.868;8.660;2023-08-17T04:04:43;20.30;99.90
4910;DHT22;2470;49.868;8.660;2023-08-17T04:07:09;20.30;99.90
4910;DHT22;2470;49.868;8.660;2023-08-17T04:09:34;20.40;99.90
4910;DHT22;2470;49.868;8.660;2023-08-17T04:12:00;20.40;99.90
4910;DHT22;2470;49.868;8.660;2023-08-17T04:14:26;20.40;99.90
4910;DHT22;2470;49.868;8.660;2023-08-17T04:16:52;20.40;99.90
4910;DHT22;2470;49.868;8.660;2023-08-17T04:19:17;20.40;99.90
4910;DHT22;2470;49.868;8.660;2023-08-17T04:21:43;20.40;99.90
4910;DHT22;2470;49.868;8.660;2023-08-17T04:24:08;20.40;99.90
4910;DHT22;2470;49.868;8.660;2023-08-17T04:26:33;20.40;99.90
4910;DHT22;2470;49.868;8.660;2023-08-17T04:28:59;20.40;99.90
4910;DHT22;2470;49.868;8.660;2023-08-17T04:31:24;20.40;99.90
4910;DHT22;2470;49.868;8.660;2023-08-17T04:33:51;20.40;99.90
4910;DHT22;2470;49.868;8.660;2023-08-17T04:36:17;20.40;99.90
4910;DHT22;2470;49.868;8.660;2023-08-17T04:38:43;20.30;99.90
4910;DHT22;2470;49.868;8.660;2023-08-17T04:41:08;20.40;99.90
4910;DHT22;2470;49.868;8.660;2023-08-17T04:43:34;20.40;99.90
4910;DHT22;2470;49.868;8.660;2023-08-17T04:45:59;20.40;99.90
4910;DHT22;2470;49.868;8.660;2023-08-17T04:48:25;20.30;99.90
4910;DHT22;2470;49.868;8.660;2023-08-17T04:50:51;20.40;99.90
4910;DHT22;2470;49.868;8.660;2023-08-17T04:53:16;20.40;99.90
4910;DHT22;2470;49.868;8.660;2023-08-17T04:55:42;20.40;99.90
4910;DHT22;2470;49.868;8.660;2023-08-17T04:58:08;20.40;99.90
4910;DHT22;2470;49.868;8.660;2023-08-17T05:00:33;20.40;99.90
4910;DHT22;2470;49.868;8.660;2023-08-17T05:02:59;20.30;99.90
4910;DHT22;2470;49.868;8.660;2023-08-17T05:05:24;20.40;99.90
4910;DHT22;2470;49.868;8.660;2023-08-17T05:07:52;20.30;99.90
4910;DHT22;2470;49.868;8.660;2023-08-17T05:10:18;20.40;99.90
4910;DHT22;2470;49.868;8.660;2023-08-17T05:12:43;20.30;99.90
4910;DHT22;2470;49.868;8.660;2023-08-17T05:15:09;20.40;99.90
4910;DHT22;2470;49.868;8.660;2023-08-17T05:17:35;20.40;99.90
4910;DHT22;2470;49.868;8.660;2023-08-17T05:20:00;20.40;99.90
4910;DHT22;2470;49.868;8.660;2023-08-17T05:22:27;20.40;99.90
4910;DHT22;2470;49.868;8.660;2023-08-17T05:24:53;20.40;99.90
4910;DHT22;2470;49.868;8.660;2023-08-17T05:27:18;20.40;99.90
4910;DHT22;2470;49.868;8.660;2023-08-17T05:29:44;20.50;99.90
4910;DHT22;2470;49.868;8.660;2023-08-17T05:32:09;20.50;99.90
4910;DHT22;2470;49.868;8.660;2023-08-17T05:34:35;20.50;99.90
4910;DHT22;2470;49.868;8.660;2023-08-17T05:37:00;20.60;99.90
4910;DHT22;2470;49.868;8.660;2023-08-17T05:39:26;20.60;99.90
4910;DHT22;2470;49.868;8.660;2023-08-17T05:41:51;20.60;99.90
4910;DHT22;2470;49.868;8.660;2023-08-17T05:44:17;20.60;99.90
4910;DHT22;2470;49.868;8.660;2023-08-17T05:46:43;20.60;99.90
4910;DHT22;2470;49.868;8.660;2023-08-17T05:49:08;20.60;99.90
4910;DHT22;2470;49.868;8.660;2023-08-17T05:51:34;20.60;99.90
4910;DHT22;2470;49.868;8.660;2023-08-17T05:53:59;20.60;99.90
4910;DHT22;2470;49.868;8.660;2023-08-17T05:56:25;20.70;99.90
4910;DHT22;2470;49.868;8.660;2023-08-17T05:58:50;20.70;99.90
4910;DHT22;2470;49.868;8.660;2023-08-17T06:01:16;20.60;99.90
4910;DHT22;2470;49.868;8.660;2023-08-17T06:03:42;20.60;99.90
4910;DHT22;2470;49.868;8.660;2023-08-17T06:06:08;20.70;99.90
4910;DHT22;2470;49.868;8.660;2023-08-17T06:08:34;20.70;99.90
4910;DHT22;2470;49.868;8.660;2023-08-17T06:11:00;20.80;99.90
4910;DHT22;2470;49.868;8.660;2023-08-17T06:13:25;20.80;99.90
4910;DHT22;2470;49.868;8.660;2023-08-17T06:15:51;20.90;99.90
4910;DHT22;2470;49.868;8.660;2023-08-17T06:18:16;20.90;99.90
4910;DHT22;2470;49.868;8.660;2023-08-17T06:20:42;21.00;99.90
4910;DHT22;2470;49.868;8.660;2023-08-17T06:23:07;21.00;99.90
4910;DHT22;2470;49.868;8.660;2023-08-17T06:25:33;21.10;99.90
4910;DHT22;2470;49.868;8.660;2023-08-17T06:27:59;21.20;99.90
4910;DHT22;2470;49.868;8.660;2023-08-17T06:30:25;21.20;99.90
4910;DHT22;2470;49.868;8.660;2023-08-17T06:32:51;21.20;99.90
4910;DHT22;2470;49.868;8.660;2023-08-17T06:35:17;21.20;99.90
4910;DHT22;2470;49.868;8.660;2023-08-17T06:37:42;21.20;99.90
4910;DHT22;2470;49.868;8.660;2023-08-17T06:40:08;21.20;99.90
4910;DHT22;2470;49.868;8.660;2023-08-17T06:42:36;21.20;99.90
4910;DHT22;2470;49.868;8.660;2023-08-17T06:45:03;21.20;99.90
4910;DHT22;2470;49.868;8.660;2023-08-17T06:47:29;21.30;99.90
4910;DHT22;2470;49.868;8.660;2023-08-17T06:49:55;21.40;99.90
4910;DHT22;2470;49.868;8.660;2023-08-17T06:52:23;21.40;99.90
4910;DHT22;2470;49.868;8.660;2023-08-17T06:54:48;21.50;99.90
4910;DHT22;2470;49.868;8.660;2023-08-17T06:57:14;21.60;99.90
4910;DHT22;2470;49.868;8.660;2023-08-17T06:59:39;21.70;99.90
4910;DHT22;2470;49.868;8.660;2023-08-17T07:02:05;21.70;99.90
4910;DHT22;2470;49.868;8.660;2023-08-17T07:04:31;21.70;99.90
4910;DHT22;2470;49.868;8.660;2023-08-17T07:06:57;21.80;99.90
4910;DHT22;2470;49.868;8.660;2023-08-17T07:09:22;21.80;99.90
4910;DHT22;2470;49.868;8.660;2023-08-17T07:11:48;21.90;99.90
4910;DHT22;2470;49.868;8.660;2023-08-17T07:14:13;22.00;99.90
4910;DHT22;2470;49.868;8.660;2023-08-17T07:16:39;22.10;99.90
4910;DHT22;2470;49.868;8.660;2023-08-17T07:19:04;22.20;99.90
4910;DHT22;2470;49.868;8.660;2023-08-17T07:21:30;22.30;99.90
4910;DHT22;2470;49.868;8.660;2023-08-17T07:23:55;22.30;99.90
4910;DHT22;2470;49.868;8.660;2023-08-17T07:26:22;22.40;99.90
4910;DHT22;2470;49.868;8.660;2023-08-17T07:28:48;22.50;99.90
4910;DHT22;2470;49.868;8.660;2023-08-17T07:31:14;22.50;99.90
4910;DHT22;2470;49.868;8.660;2023-08-17T07:33:39;22.50;99.90
4910;DHT22;2470;49.868;8.660;2023-08-17T07:36:05;22.50;99.90
4910;DHT22;2470;49.868;8.660;2023-08-17T07:38:30;22.50;99.90
4910;DHT22;2470;49.868;8.660;2023-08-17T07:40:56;22.60;99.90
4910;DHT22;2470;49.868;8.660;2023-08-17T07:43:22;22.60;99.90
4910;DHT22;2470;49.868;8.660;2023-08-17T07:45:54;22.70;99.90
4910;DHT22;2470;49.868;8.660;2023-08-17T07:48:20;22.70;99.90
4910;DHT22;2470;49.868;8.660;2023-08-17T07:50:49;22.60;99.90
4910;DHT22;2470;49.868;8.660;2023-08-17T07:53:15;22.60;99.90
4910;DHT22;2470;49.868;8.660;2023-08-17T07:55:41;22.60;99.90
4910;DHT22;2470;49.868;8.660;2023-08-17T07:58:06;22.60;99.90
4910;DHT22;2470;49.868;8.660;2023-08-17T08:00:32;22.60;99.90
4910;DHT22;2470;49.868;8.660;2023-08-17T08:02:57;22.60;99.90
4910;DHT22;2470;49.868;8.660;2023-08-17T08:05:23;22.60;99.90
4910;DHT22;2470;49.868;8.660;2023-08-17T08:07:49;22.60;99.90
4910;DHT22;2470;49.868;8.660;2023-08-17T08:10:15;22.60;99.90
4910;DHT22;2470;49.868;8.660;2023-08-17T08:12:40;22.60;99.90
4910;DHT22;2470;49.868;8.660;2023-08-17T08:15:06;22.70;99.90
4910;DHT22;2470;49.868;8.660;2023-08-17T08:17:32;22.70;99.90
4910;DHT22;2470;49.868;8.660;2023-08-17T08:19:57;22.70;99.90
4910;DHT22;2470;49.868;8.660;2023-08-17T08:22:23;22.80;99.90
4910;DHT22;2470;49.868;8.660;2023-08-17T08:24:49;22.80;99.90
4910;DHT22;2470;49.868;8.660;2023-08-17T08:27:15;22.80;99.90
4910;DHT22;2470;49.868;8.660;2023-08-17T08:29:40;22.80;99.90
4910;DHT22;2470;49.868;8.660;2023-08-17T08:32:06;22.80;99.90
4910;DHT22;2470;49.868;8.660;2023-08-17T08:34:31;22.70;99.90
4910;DHT22;2470;49.868;8.660;2023-08-17T08:36:57;22.70;99.90
4910;DHT22;2470;49.868;8.660;2023-08-17T08:39:25;22.70;99.90
4910;DHT22;2470;49.868;8.660;2023-08-17T08:41:51;22.80;99.90
4910;DHT22;2470;49.868;8.660;2023-08-17T08:44:16;22.80;99.90
4910;DHT22;2470;49.868;8.660;2023-08-17T08:46:44;22.90;99.90
4910;DHT22;2470;49.868;8.660;2023-08-17T08:49:11;22.90;99.90
4910;DHT22;2470;49.868;8.660;2023-08-17T08:51:41;22.90;99.90
4910;DHT22;2470;49.868;8.660;2023-08-17T08:54:08;22.90;99.90
4910;DHT22;2470;49.868;8.660;2023-08-17T08:56:38;23.00;99.90
4910;DHT22;2470;49.868;8.660;2023-08-17T08:59:07;23.10;99.90
4910;DHT22;2470;49.868;8.660;2023-08-17T09:01:33;23.10;99.90
4910;DHT22;2470;49.868;8.660;2023-08-17T09:03:59;23.20;99.90
4910;DHT22;2470;49.868;8.660;2023-08-17T09:06:32;23.20;99.90
4910;DHT22;2470;49.868;8.660;2023-08-17T09:08:58;23.20;99.90
4910;DHT22;2470;49.868;8.660;2023-08-17T09:11:25;23.20;99.90
4910;DHT22;2470;49.868;8.660;2023-08-17T09:13:52;23.10;99.90
4910;DHT22;2470;49.868;8.660;2023-08-17T09:16:17;23.10;99.90
4910;DHT22;2470;49.868;8.660;2023-08-17T09:18:43;23.10;99.90
4910;DHT22;2470;49.868;8.660;2023-08-17T09:21:20;23.10;99.90
4910;DHT22;2470;49.868;8.660;2023-08-17T09:23:54;23.20;99.90
4910;DHT22;2470;49.868;8.660;2023-08-17T09:26:22;23.20;99.90
4910;DHT22;2470;49.868;8.660;2023-08-17T09:28:52;23.20;99.90
4910;DHT22;2470;49.868;8.660;2023-08-17T09:31:20;23.30;99.90
4910;DHT22;2470;49.868;8.660;2023-08-17T09:33:52;23.30;99.90
4910;DHT22;2470;49.868;8.660;2023-08-17T09:36:21;23.30;99.90
4910;DHT22;2470;49.868;8.660;2023-08-17T09:38:48;23.30;99.90
4910;DHT22;2470;49.868;8.660;2023-08-17T09:41:15;23.30;99.90
4910;DHT22;2470;49.868;8.660;2023-08-17T09:43:41;23.40;99.90
4910;DHT22;2470;49.868;8.660;2023-08-17T09:46:06;23.50;99.90
4910;DHT22;2470;49.868;8.660;2023-08-17T09:48:33;23.50;99.90
4910;DHT22;2470;49.868;8.660;2023-08-17T09:50:58;23.60;99.90
4910;DHT22;2470;49.868;8.660;2023-08-17T09:53:24;23.60;99.90
4910;DHT22;2470;49.868;8.660;2023-08-17T09:55:50;23.50;99.90
4910;DHT22;2470;49.868;8.660;2023-08-17T09:58:16;23.50;99.90
4910;DHT22;2470;49.868;8.660;2023-08-17T10:00:49;23.50;99.90
4910;DHT22;2470;49.868;8.660;2023-08-17T10:03:16;23.40;99.90
4910;DHT22;2470;49.868;8.660;2023-08-17T10:05:44;23.40;99.90
4910;DHT22;2470;49.868;8.660;2023-08-17T10:08:11;23.40;99.90
4910;DHT22;2470;49.868;8.660;2023-08-17T10:10:41;23.40;99.90
4910;DHT22;2470;49.868;8.660;2023-08-17T10:15:38;23.60;99.90
4910;DHT22;2470;49.868;8.660;2023-08-17T10:18:25;23.70;99.90
4910;DHT22;2470;49.868;8.660;2023-08-17T10:21:01;23.70;99.90
4910;DHT22;2470;49.868;8.660;2023-08-17T10:23:28;23.80;99.90
4910;DHT22;2470;49.868;8.660;2023-08-17T10:25:55;23.90;99.90
4910;DHT22;2470;49.868;8.660;2023-08-17T10:28:24;24.00;99.90
4910;DHT22;2470;49.868;8.660;2023-08-17T10:30:51;24.20;99.90
4910;DHT22;2470;49.868;8.660;2023-08-17T10:33:16;24.30;99.90
4910;DHT22;2470;49.868;8.660;2023-08-17T10:35:43;24.50;99.90
4910;DHT22;2470;49.868;8.660;2023-08-17T10:38:10;24.50;99.90
4910;DHT22;2470;49.868;8.660;2023-08-17T10:40:37;24.80;99.90
4910;DHT22;2470;49.868;8.660;2023-08-17T10:43:02;25.00;99.90
4910;DHT22;2470;49.868;8.660;2023-08-17T10:45:29;25.10;99.90
4910;DHT22;2470;49.868;8.660;2023-08-17T10:50:33;25.30;99.90
4910;DHT22;2470;49.868;8.660;2023-08-17T10:53:04;25.50;99.90
4910;DHT22;2470;49.868;8.660;2023-08-17T10:55:40;25.60;99.90
4910;DHT22;2470;49.868;8.660;2023-08-17T10:58:07;25.60;99.90
4910;DHT22;2470;49.868;8.660;2023-08-17T11:00:40;25.60;99.90
4910;DHT22;2470;49.868;8.660;2023-08-17T11:03:10;25.60;99.90
4910;DHT22;2470;49.868;8.660;2023-08-17T11:05:40;25.50;99.90
4910;DHT22;2470;49.868;8.660;2023-08-17T11:08:07;25.30;99.90
4910;DHT22;2470;49.868;8.660;2023-08-17T11:10:36;25.30;99.90
4910;DHT22;2470;49.868;8.660;2023-08-17T11:13:03;25.30;99.90
4910;DHT22;2470;49.868;8.660;2023-08-17T11:15:41;25.30;99.90
4910;DHT22;2470;49.868;8.660;2023-08-17T11:18:08;25.30;99.90
4910;DHT22;2470;49.868;8.660;2023-08-17T11:20:35;25.30;99.90
4910;DHT22;2470;49.868;8.660;2023-08-17T11:23:01;25.30;99.90
4910;DHT22;2470;49.868;8.660;2023-08-17T11:25:27;25.40;99.90
4910;DHT22;2470;49.868;8.660;2023-08-17T11:27:54;25.40;99.90
4910;DHT22;2470;49.868;8.660;2023-08-17T11:30:23;25.50;99.90
4910;DHT22;2470;49.868;8.660;2023-08-17T11:32:50;25.50;99.90
4910;DHT22;2470;49.868;8.660;2023-08-17T11:35:16;25.50;99.90
4910;DHT22;2470;49.868;8.660;2023-08-17T11:37:42;25.60;99.90
4910;DHT22;2470;49.868;8.660;2023-08-17T11:40:12;25.50;99.90
4910;DHT22;2470;49.868;8.660;2023-08-17T11:42:38;25.60;99.90
4910;DHT22;2470;49.868;8.660;2023-08-17T11:45:05;25.60;99.90
4910;DHT22;2470;49.868;8.660;2023-08-17T11:47:31;25.70;99.90
4910;DHT22;2470;49.868;8.660;2023-08-17T11:50:04;25.70;99.90
4910;DHT22;2470;49.868;8.660;2023-08-17T11:52:31;25.90;99.90
4910;DHT22;2470;49.868;8.660;2023-08-17T11:55:02;26.00;99.90
4910;DHT22;2470;49.868;8.660;2023-08-17T11:57:29;26.10;99.90
4910;DHT22;2470;49.868;8.660;2023-08-17T11:59:56;26.20;99.90
4910;DHT22;2470;49.868;8.660;2023-08-17T12:02:28;26.50;99.90
4910;DHT22;2470;49.868;8.660;2023-08-17T12:04:55;26.60;99.90
4910;DHT22;2470;49.868;8.660;2023-08-17T12:07:24;27.10;99.90
4910;DHT22;2470;49.868;8.660;2023-08-17T12:09:51;27.60;99.90
4910;DHT22;2470;49.868;8.660;2023-08-17T12:12:21;27.90;99.90
4910;DHT22;2470;49.868;8.660;2023-08-17T12:14:50;28.00;99.90
4910;DHT22;2470;49.868;8.660;2023-08-17T12:17:17;28.10;99.90
4910;DHT22;2470;49.868;8.660;2023-08-17T12:19:44;28.20;99.90
4910;DHT22;2470;49.868;8.660;2023-08-17T12:22:11;28.20;99.90
4910;DHT22;2470;49.868;8.660;2023-08-17T12:24:38;28.20;99.90
4910;DHT22;2470;49.868;8.660;2023-08-17T12:27:05;28.30;99.90
4910;DHT22;2470;49.868;8.660;2023-08-17T12:29:30;28.40;99.90
4910;DHT22;2470;49.868;8.660;2023-08-17T12:32:01;28.40;99.90
4910;DHT22;2470;49.868;8.660;2023-08-17T12:34:27;28.60;99.90
4910;DHT22;2470;49.868;8.660;2023-08-17T12:36:52;28.90;99.90
4910;DHT22;2470;49.868;8.660;2023-08-17T12:39:18;29.40;99.90
4910;DHT22;2470;49.868;8.660;2023-08-17T12:41:43;29.90;99.90
4910;DHT22;2470;49.868;8.660;2023-08-17T12:44:10;30.50;99.90
4910;DHT22;2470;49.868;8.660;2023-08-17T12:46:39;31.30;99.90
4910;DHT22;2470;49.868;8.660;2023-08-17T12:49:05;31.60;99.90
4910;DHT22;2470;49.868;8.660;2023-08-17T12:51:31;32.20;99.90
4910;DHT22;2470;49.868;8.660;2023-08-17T12:53:56;31.80;99.90
4910;DHT22;2470;49.868;8.660;2023-08-17T12:56:22;31.50;99.90
4910;DHT22;2470;49.868;8.660;2023-08-17T12:58:47;31.40;99.90
4910;DHT22;2470;49.868;8.660;2023-08-17T13:01:13;31.90;99.90
4910;DHT22;2470;49.868;8.660;2023-08-17T13:03:39;32.80;99.90
4910;DHT22;2470;49.868;8.660;2023-08-17T13:06:04;33.80;99.80
4910;DHT22;2470;49.868;8.660;2023-08-17T13:08:30;34.70;97.50
4910;DHT22;2470;49.868;8.660;2023-08-17T13:10:56;35.00;96.10
4910;DHT22;2470;49.868;8.660;2023-08-17T13:13:21;35.00;95.50
4910;DHT22;2470;49.868;8.660;2023-08-17T13:15:47;34.50;94.70
4910;DHT22;2470;49.868;8.660;2023-08-17T13:18:12;33.70;95.20
4910;DHT22;2470;49.868;8.660;2023-08-17T13:20:38;32.60;96.20
4910;DHT22;2470;49.868;8.660;2023-08-17T13:23:05;32.00;98.10
4910;DHT22;2470;49.868;8.660;2023-08-17T13:25:31;31.50;98.90
4910;DHT22;2470;49.868;8.660;2023-08-17T13:27:57;31.00;99.90
4910;DHT22;2470;49.868;8.660;2023-08-17T13:30:22;30.40;99.90
4910;DHT22;2470;49.868;8.660;2023-08-17T13:32:48;29.90;99.90
4910;DHT22;2470;49.868;8.660;2023-08-17T13:35:14;29.40;99.90
4910;DHT22;2470;49.868;8.660;2023-08-17T13:37:40;29.10;99.90
4910;DHT22;2470;49.868;8.660;2023-08-17T13:40:06;28.90;99.90
4910;DHT22;2470;49.868;8.660;2023-08-17T13:42:32;28.80;99.90
4910;DHT22;2470;49.868;8.660;2023-08-17T13:44:58;28.80;99.90
4910;DHT22;2470;49.868;8.660;2023-08-17T13:47:23;28.90;99.90
4910;DHT22;2470;49.868;8.660;2023-08-17T13:49:49;29.30;99.90
4910;DHT22;2470;49.868;8.660;2023-08-17T13:52:14;30.40;99.90
4910;DHT22;2470;49.868;8.660;2023-08-17T13:54:40;31.30;99.90
4910;DHT22;2470;49.868;8.660;2023-08-17T13:57:05;32.30;99.90
4910;DHT22;2470;49.868;8.660;2023-08-17T13:59:31;32.80;99.90
4910;DHT22;2470;49.868;8.660;2023-08-17T14:01:56;32.90;99.90
4910;DHT22;2470;49.868;8.660;2023-08-17T14:04:22;32.80;99.30
4910;DHT22;2470;49.868;8.660;2023-08-17T14:06:48;32.90;99.10
4910;DHT22;2470;49.868;8.660;2023-08-17T14:09:14;32.80;98.40
4910;DHT22;2470;49.868;8.660;2023-08-17T14:11:39;32.50;98.70
4910;DHT22;2470;49.868;8.660;2023-08-17T14:14:05;32.60;98.80
4910;DHT22;2470;49.868;8.660;2023-08-17T14:16:30;32.60;98.40
4910;DHT22;2470;49.868;8.660;2023-08-17T14:18:56;32.50;98.50
4910;DHT22;2470;49.868;8.660;2023-08-17T14:21:22;33.40;98.30
4910;DHT22;2470;49.868;8.660;2023-08-17T14:23:47;34.20;96.60
4910;DHT22;2470;49.868;8.660;2023-08-17T14:26:13;35.00;95.40
4910;DHT22;2470;49.868;8.660;2023-08-17T14:28:38;35.50;93.90
4910;DHT22;2470;49.868;8.660;2023-08-17T14:31:04;36.40;92.20
4910;DHT22;2470;49.868;8.660;2023-08-17T14:33:29;36.10;91.20
4910;DHT22;2470;49.868;8.660;2023-08-17T14:35:55;35.40;91.70
4910;DHT22;2470;49.868;8.660;2023-08-17T14:38:20;35.10;92.10
4910;DHT22;2470;49.868;8.660;2023-08-17T14:40:47;35.10;92.40
4910;DHT22;2470;49.868;8.660;2023-08-17T14:43:13;35.30;91.80
4910;DHT22;2470;49.868;8.660;2023-08-17T14:45:40;35.90;91.00
4910;DHT22;2470;49.868;8.660;2023-08-17T14:48:06;36.70;89.60
4910;DHT22;2470;49.868;8.660;2023-08-17T14:50:35;37.60;86.30
4910;DHT22;2470;49.868;8.660;2023-08-17T14:53:02;38.50;83.60
4910;DHT22;2470;49.868;8.660;2023-08-17T14:55:31;39.30;80.30
4910;DHT22;2470;49.868;8.660;2023-08-17T14:57:56;39.90;78.00
4910;DHT22;2470;49.868;8.660;2023-08-17T15:00:23;40.70;74.90
4910;DHT22;2470;49.868;8.660;2023-08-17T15:02:49;41.10;72.40
4910;DHT22;2470;49.868;8.660;2023-08-17T15:05:15;41.10;71.90
4910;DHT22;2470;49.868;8.660;2023-08-17T15:07:40;41.80;70.10
4910;DHT22;2470;49.868;8.660;2023-08-17T15:10:06;42.20;67.80
4910;DHT22;2470;49.868;8.660;2023-08-17T15:12:32;41.90;66.20
4910;DHT22;2470;49.868;8.660;2023-08-17T15:14:57;40.40;67.70
4910;DHT22;2470;49.868;8.660;2023-08-17T15:17:23;38.80;70.00
4910;DHT22;2470;49.868;8.660;2023-08-17T15:19:48;37.30;73.30
4910;DHT22;2470;49.868;8.660;2023-08-17T15:22:14;36.00;76.80
4910;DHT22;2470;49.868;8.660;2023-08-17T15:24:39;35.00;79.90
4910;DHT22;2470;49.868;8.660;2023-08-17T15:27:05;34.10;82.00
4910;DHT22;2470;49.868;8.660;2023-08-17T15:29:30;33.50;83.50
4910;DHT22;2470;49.868;8.660;2023-08-17T15:31:55;32.90;85.90
4910;DHT22;2470;49.868;8.660;2023-08-17T15:34:21;32.40;87.80
4910;DHT22;2470;49.868;8.660;2023-08-17T15:36:47;31.90;90.20
4910;DHT22;2470;49.868;8.660;2023-08-17T15:39:12;31.70;90.80
4910;DHT22;2470;49.868;8.660;2023-08-17T15:41:38;31.40;91.60
4910;DHT22;2470;49.868;8.660;2023-08-17T15:44:03;31.20;92.40
4910;DHT22;2470;49.868;8.660;2023-08-17T15:46:29;31.00;93.10
4910;DHT22;2470;49.868;8.660;2023-08-17T15:48:56;30.90;93.70
4910;DHT22;2470;49.868;8.660;2023-08-17T15:51:22;30.80;94.10
4910;DHT22;2470;49.868;8.660;2023-08-17T15:53:48;30.60;94.40
4910;DHT22;2470;49.868;8.660;2023-08-17T15:56:14;30.40;95.10
4910;DHT22;2470;49.868;8.660;2023-08-17T15:58:40;30.30;95.70
4910;DHT22;2470;49.868;8.660;2023-08-17T16:01:06;30.20;96.30